sensor_id;sensor_type;location;lat;lon;timestamp;temperature;humidity
74869;DHT22;63419;42.262;12.210;2023-06-10T00:02:26;17.60;99.90
74869;DHT22;63419;42.262;12.210;2023-06-10T00:04:54;17.60;99.90
74869;DHT22;63419;42.262;12.210;2023-06-10T00:07:22;17.50;99.90
74869;DHT22;63419;42.262;12.210;2023-06-10T00:09:49;17.50;99.90
74869;DHT22;63419;42.262;12.210;2023-06-10T00:12:17;17.40;99.90
74869;DHT22;63419;42.262;12.210;2023-06-10T00:14:45;17.50;99.90
74869;DHT22;63419;42.262;12.210;2023-06-10T00:17:12;17.40;99.90
74869;DHT22;63419;42.262;12.210;2023-06-10T00:19:39;17.50;99.90
74869;DHT22;63419;42.262;12.210;2023-06-10T00:22:08;17.50;99.90
74869;DHT22;63419;42.262;12.210;2023-06-10T00:24:37;17.50;99.90
74869;DHT22;63419;42.262;12.210;2023-06-10T00:27:05;17.60;99.90
74869;DHT22;63419;42.262;12.210;2023-06-10T00:29:34;17.70;99.90
74869;DHT22;63419;42.262;12.210;2023-06-10T00:32:02;17.70;99.90
74869;DHT22;63419;42.262;12.210;2023-06-10T00:34:30;17.70;99.90
74869;DHT22;63419;42.262;12.210;2023-06-10T00:36:57;17.80;99.90
74869;DHT22;63419;42.262;12.210;2023-06-10T00:39:24;17.70;99.90
74869;DHT22;63419;42.262;12.210;2023-06-10T00:41:51;17.70;99.90
74869;DHT22;63419;42.262;12.210;2023-06-10T00:44:19;17.70;99.90
74869;DHT22;63419;42.262;12.210;2023-06-10T00:46:46;17.60;99.90
74869;DHT22;63419;42.262;12.210;2023-06-10T00:49:13;17.60;99.90
74869;DHT22;63419;42.262;12.210;2023-06-10T00:51:41;17.60;99.90
74869;DHT22;63419;42.262;12.210;2023-06-10T00:54:08;17.60;99.90
74869;DHT22;63419;42.262;12.210;2023-06-10T00:56:36;17.70;99.90
74869;DHT22;63419;42.262;12.210;2023-06-10T00:59:04;17.70;99.90
74869;DHT22;63419;42.262;12.210;2023-06-10T01:01:31;17.70;99.90
74869;DHT22;63419;42.262;12.210;2023-06-10T01:03:59;17.70;99.90
74869;DHT22;63419;42.262;12.210;2023-06-10T01:09:32;17.90;99.90
74869;DHT22;63419;42.262;12.210;2023-06-10T01:14:46;17.80;99.90
74869;DHT22;63419;42.262;12.210;2023-06-10T01:17:15;17.80;99.90
74869;DHT22;63419;42.262;12.210;2023-06-10T01:19:44;17.80;99.90
74869;DHT22;63419;42.262;12.210;2023-06-10T01:22:11;17.80;99.90
74869;DHT22;63419;42.262;12.210;2023-06-10T01:24:42;17.80;99.90
74869;DHT22;63419;42.262;12.210;2023-06-10T01:27:13;17.80;99.90
74869;DHT22;63419;42.262;12.210;2023-06-10T01:29:50;17.80;99.90
74869;DHT22;63419;42.262;12.210;2023-06-10T01:32:27;17.80;99.90
74869;DHT22;63419;42.262;12.210;2023-06-10T01:34:56;17.80;99.90
74869;DHT22;63419;42.262;12.210;2023-06-10T01:37:24;17.80;99.90
74869;DHT22;63419;42.262;12.210;2023-06-10T01:39:57;17.80;99.90
74869;DHT22;63419;42.262;12.210;2023-06-10T01:42:25;17.80;99.90
74869;DHT22;63419;42.262;12.210;2023-06-10T01:44:53;17.80;99.90
74869;DHT22;63419;42.262;12.210;2023-06-10T01:47:20;17.80;99.90
74869;DHT22;63419;42.262;12.210;2023-06-10T01:49:47;17.90;99.90
74869;DHT22;63419;42.262;12.210;2023-06-10T01:52:14;17.90;99.90
74869;DHT22;63419;42.262;12.210;2023-06-10T01:54:42;17.80;99.90
74869;DHT22;63419;42.262;12.210;2023-06-10T01:57:09;17.90;99.90
74869;DHT22;63419;42.262;12.210;2023-06-10T01:59:37;17.90;99.90
74869;DHT22;63419;42.262;12.210;2023-06-10T02:02:05;18.00;99.90
74869;DHT22;63419;42.262;12.210;2023-06-10T02:04:32;17.90;99.90
74869;DHT22;63419;42.262;12.210;2023-06-10T02:06:59;17.90;99.90
74869;DHT22;63419;42.262;12.210;2023-06-10T02:09:31;17.90;99.90
74869;DHT22;63419;42.262;12.210;2023-06-10T02:11:59;18.00;99.90
74869;DHT22;63419;42.262;12.210;2023-06-10T02:14:26;17.90;99.90
74869;DHT22;63419;42.262;12.210;2023-06-10T02:16:53;17.90;99.90
74869;DHT22;63419;42.262;12.210;2023-06-10T02:19:23;17.90;99.90
74869;DHT22;63419;42.262;12.210;2023-06-10T02:21:52;17.90;99.90
74869;DHT22;63419;42.262;12.210;2023-06-10T02:24:19;17.90;99.90
74869;DHT22;63419;42.262;12.210;2023-06-10T02:26:46;17.90;99.90
74869;DHT22;63419;42.262;12.210;2023-06-10T02:29:14;17.90;99.90
74869;DHT22;63419;42.262;12.210;2023-06-10T02:31:42;17.80;99.90
74869;DHT22;63419;42.262;12.210;2023-06-10T02:34:09;17.90;99.90
74869;DHT22;63419;42.262;12.210;2023-06-10T02:36:37;17.90;99.90
74869;DHT22;63419;42.262;12.210;2023-06-10T02:39:04;17.90;99.90
74869;DHT22;63419;42.262;12.210;2023-06-10T02:41:31;17.90;99.90
74869;DHT22;63419;42.262;12.210;2023-06-10T02:43:58;17.90;99.90
74869;DHT22;63419;42.262;12.210;2023-06-10T02:46:25;17.90;99.90
74869;DHT22;63419;42.262;12.210;2023-06-10T02:48:53;17.90;99.90
74869;DHT22;63419;42.262;12.210;2023-06-10T02:51:20;17.70;99.90
74869;DHT22;63419;42.262;12.210;2023-06-10T02:53:47;17.70;99.90
74869;DHT22;63419;42.262;12.210;2023-06-10T02:56:19;17.70;99.90
74869;DHT22;63419;42.262;12.210;2023-06-10T02:58:46;17.80;99.90
74869;DHT22;63419;42.262;12.210;2023-06-10T03:01:15;17.80;99.90
74869;DHT22;63419;42.262;12.210;2023-06-10T03:03:42;17.80;99.90
74869;DHT22;63419;42.262;12.210;2023-06-10T03:06:13;17.80;99.90
74869;DHT22;63419;42.262;12.210;2023-06-10T03:08:40;17.90;99.90
74869;DHT22;63419;42.262;12.210;2023-06-10T03:11:08;17.90;99.90
74869;DHT22;63419;42.262;12.210;2023-06-10T03:13:35;17.80;99.90
74869;DHT22;63419;42.262;12.210;2023-06-10T03:16:02;17.80;99.90
74869;DHT22;63419;42.262;12.210;2023-06-10T03:18:30;17.80;99.90
74869;DHT22;63419;42.262;12.210;2023-06-10T03:20:57;17.80;99.90
74869;DHT22;63419;42.262;12.210;2023-06-10T03:23:25;17.80;99.90
74869;DHT22;63419;42.262;12.210;2023-06-10T03:25:54;17.70;99.90
74869;DHT22;63419;42.262;12.210;2023-06-10T03:28:35;17.70;99.90
74869;DHT22;63419;42.262;12.210;2023-06-10T03:31:03;17.70;99.90
74869;DHT22;63419;42.262;12.210;2023-06-10T03:33:30;17.70;99.90
74869;DHT22;63419;42.262;12.210;2023-06-10T03:35:58;17.70;99.90
74869;DHT22;63419;42.262;12.210;2023-06-10T03:38:25;17.60;99.90
74869;DHT22;63419;42.262;12.210;2023-06-10T03:40:53;17.70;99.90
74869;DHT22;63419;42.262;12.210;2023-06-10T03:43:20;17.80;99.90
74869;DHT22;63419;42.262;12.210;2023-06-10T03:45:47;17.80;99.90
74869;DHT22;63419;42.262;12.210;2023-06-10T03:48:16;17.60;99.90
74869;DHT22;63419;42.262;12.210;2023-06-10T03:50:43;17.60;99.90
74869;DHT22;63419;42.262;12.210;2023-06-10T03:53:10;17.50;99.90
74869;DHT22;63419;42.262;12.210;2023-06-10T03:55:38;17.30;99.90
74869;DHT22;63419;42.262;12.210;2023-06-10T03:58:05;17.30;99.90
74869;DHT22;63419;42.262;12.210;2023-06-10T04:00:32;17.40;99.90
74869;DHT22;63419;42.262;12.210;2023-06-10T04:03:08;17.40;99.90
74869;DHT22;63419;42.262;12.210;2023-06-10T04:05:36;17.40;99.90
74869;DHT22;63419;42.262;12.210;2023-06-10T04:08:22;17.40;99.90
74869;DHT22;63419;42.262;12.210;2023-06-10T04:10:49;17.40;99.90
74869;DHT22;63419;42.262;12.210;2023-06-10T04:13:16;17.40;99.90
74869;DHT22;63419;42.262;12.210;2023-06-10T04:15:43;17.40;99.90
74869;DHT22;63419;42.262;12.210;2023-06-10T04:18:11;17.50;99.90
74869;DHT22;63419;42.262;12.210;2023-06-10T04:20:38;17.50;99.90
74869;DHT22;63419;42.262;12.210;2023-06-10T04:23:05;17.60;99.90
74869;DHT22;63419;42.262;12.210;2023-06-10T04:25:33;17.60;99.90
74869;DHT22;63419;42.262;12.210;2023-06-10T04:28:01;17.50;99.90
74869;DHT22;63419;42.262;12.210;2023-06-10T04:30:29;17.60;99.90
74869;DHT22;63419;42.262;12.210;2023-06-10T04:32:58;17.60;99.90
74869;DHT22;63419;42.262;12.210;2023-06-10T04:35:25;17.80;99.90
74869;DHT22;63419;42.262;12.210;2023-06-10T04:37:54;17.80;99.90
74869;DHT22;63419;42.262;12.210;2023-06-10T04:40:22;17.90;99.90
74869;DHT22;63419;42.262;12.210;2023-06-10T04:42:49;17.90;99.90
74869;DHT22;63419;42.262;12.210;2023-06-10T04:45:17;17.90;99.90
74869;DHT22;63419;42.262;12.210;2023-06-10T04:47:44;18.00;99.90
74869;DHT22;63419;42.262;12.210;2023-06-10T04:50:11;18.10;99.90
74869;DHT22;63419;42.262;12.210;2023-06-10T04:52:39;18.10;99.90
74869;DHT22;63419;42.262;12.210;2023-06-10T04:55:08;18.10;99.90
74869;DHT22;63419;42.262;12.210;2023-06-10T04:57:36;17.90;99.90
74869;DHT22;63419;42.262;12.210;2023-06-10T05:00:04;17.50;99.90
74869;DHT22;63419;42.262;12.210;2023-06-10T05:02:33;17.30;99.90
74869;DHT22;63419;42.262;12.210;2023-06-10T05:05:00;17.10;99.90
74869;DHT22;63419;42.262;12.210;2023-06-10T05:07:27;16.80;99.90
74869;DHT22;63419;42.262;12.210;2023-06-10T05:09:55;16.70;99.90
74869;DHT22;63419;42.262;12.210;2023-06-10T05:12:22;16.70;99.90
74869;DHT22;63419;42.262;12.210;2023-06-10T05:14:49;16.90;99.90
74869;DHT22;63419;42.262;12.210;2023-06-10T05:17:16;17.20;99.90
74869;DHT22;63419;42.262;12.210;2023-06-10T05:19:44;17.40;99.90
74869;DHT22;63419;42.262;12.210;2023-06-10T05:22:11;17.60;99.90
74869;DHT22;63419;42.262;12.210;2023-06-10T05:24:40;17.70;99.90
74869;DHT22;63419;42.262;12.210;2023-06-10T05:27:08;17.70;99.90
74869;DHT22;63419;42.262;12.210;2023-06-10T05:29:35;17.80;99.90
74869;DHT22;63419;42.262;12.210;2023-06-10T05:32:03;17.90;99.90
74869;DHT22;63419;42.262;12.210;2023-06-10T05:34:31;17.90;99.90
74869;DHT22;63419;42.262;12.210;2023-06-10T05:36:58;17.80;99.90
74869;DHT22;63419;42.262;12.210;2023-06-10T05:39:25;17.70;99.90
74869;DHT22;63419;42.262;12.210;2023-06-10T05:41:52;17.70;99.90
74869;DHT22;63419;42.262;12.210;2023-06-10T05:44:20;17.70;99.90
74869;DHT22;63419;42.262;12.210;2023-06-10T05:46:47;17.70;99.90
74869;DHT22;63419;42.262;12.210;2023-06-10T05:49:14;17.70;99.90
74869;DHT22;63419;42.262;12.210;2023-06-10T05:51:42;17.60;99.90
74869;DHT22;63419;42.262;12.210;2023-06-10T05:54:09;17.50;99.90
74869;DHT22;63419;42.262;12.210;2023-06-10T05:56:36;17.40;99.90
74869;DHT22;63419;42.262;12.210;2023-06-10T05:59:03;17.40;99.90
74869;DHT22;63419;42.262;12.210;2023-06-10T06:01:30;17.50;99.90
74869;DHT22;63419;42.262;12.210;2023-06-10T06:03:58;17.50;99.90
74869;DHT22;63419;42.262;12.210;2023-06-10T06:06:25;17.70;99.90
74869;DHT22;63419;42.262;12.210;2023-06-10T06:08:54;18.00;99.90
74869;DHT22;63419;42.262;12.210;2023-06-10T06:11:21;17.90;99.90
74869;DHT22;63419;42.262;12.210;2023-06-10T06:13:48;18.30;99.90
74869;DHT22;63419;42.262;12.210;2023-06-10T06:16:19;18.20;99.90
74869;DHT22;63419;42.262;12.210;2023-06-10T06:18:46;18.40;99.90
74869;DHT22;63419;42.262;12.210;2023-06-10T06:21:14;18.40;99.90
74869;DHT22;63419;42.262;12.210;2023-06-10T06:23:41;18.50;99.90
74869;DHT22;63419;42.262;12.210;2023-06-10T06:26:08;18.70;99.90
74869;DHT22;63419;42.262;12.210;2023-06-10T06:28:36;18.80;99.90
74869;DHT22;63419;42.262;12.210;2023-06-10T06:31:03;18.80;99.90
74869;DHT22;63419;42.262;12.210;2023-06-10T06:33:31;18.80;99.90
74869;DHT22;63419;42.262;12.210;2023-06-10T06:35:58;18.90;99.90
74869;DHT22;63419;42.262;12.210;2023-06-10T06:38:27;19.00;99.90
74869;DHT22;63419;42.262;12.210;2023-06-10T06:40:54;19.10;99.90
74869;DHT22;63419;42.262;12.210;2023-06-10T06:43:21;18.90;99.90
74869;DHT22;63419;42.262;12.210;2023-06-10T06:45:49;19.20;99.90
74869;DHT22;63419;42.262;12.210;2023-06-10T06:48:16;19.50;99.90
74869;DHT22;63419;42.262;12.210;2023-06-10T06:50:43;19.40;99.90
74869;DHT22;63419;42.262;12.210;2023-06-10T06:53:11;19.50;99.90
74869;DHT22;63419;42.262;12.210;2023-06-10T06:55:38;19.60;99.90
74869;DHT22;63419;42.262;12.210;2023-06-10T06:58:05;19.60;99.90
74869;DHT22;63419;42.262;12.210;2023-06-10T07:00:32;19.70;99.90
74869;DHT22;63419;42.262;12.210;2023-06-10T07:03:00;19.70;99.90
74869;DHT22;63419;42.262;12.210;2023-06-10T07:05:27;19.70;99.90
74869;DHT22;63419;42.262;12.210;2023-06-10T07:07:55;19.80;99.90
74869;DHT22;63419;42.262;12.210;2023-06-10T07:10:23;19.80;99.90
74869;DHT22;63419;42.262;12.210;2023-06-10T07:12:52;19.70;99.90
74869;DHT22;63419;42.262;12.210;2023-06-10T07:15:19;19.80;99.90
74869;DHT22;63419;42.262;12.210;2023-06-10T07:17:47;19.90;99.90
74869;DHT22;63419;42.262;12.210;2023-06-10T07:20:14;19.90;99.90
74869;DHT22;63419;42.262;12.210;2023-06-10T07:22:42;20.20;99.90
74869;DHT22;63419;42.262;12.210;2023-06-10T07:25:09;19.90;99.90
74869;DHT22;63419;42.262;12.210;2023-06-10T07:27:37;20.00;99.90
74869;DHT22;63419;42.262;12.210;2023-06-10T07:30:06;19.90;99.90
74869;DHT22;63419;42.262;12.210;2023-06-10T07:32:35;19.90;99.90
74869;DHT22;63419;42.262;12.210;2023-06-10T07:35:02;20.20;99.90
74869;DHT22;63419;42.262;12.210;2023-06-10T07:37:30;20.10;99.90
74869;DHT22;63419;42.262;12.210;2023-06-10T07:39:57;20.40;99.90
74869;DHT22;63419;42.262;12.210;2023-06-10T07:42:24;20.40;99.90
74869;DHT22;63419;42.262;12.210;2023-06-10T07:44:52;20.30;99.90
74869;DHT22;63419;42.262;12.210;2023-06-10T07:47:19;20.60;99.90
74869;DHT22;63419;42.262;12.210;2023-06-10T07:49:46;20.60;99.90
74869;DHT22;63419;42.262;12.210;2023-06-10T07:52:13;20.80;99.90
74869;DHT22;63419;42.262;12.210;2023-06-10T07:54:40;20.50;99.90
74869;DHT22;63419;42.262;12.210;2023-06-10T07:57:08;20.70;99.90
74869;DHT22;63419;42.262;12.210;2023-06-10T07:59:35;20.80;99.90
74869;DHT22;63419;42.262;12.210;2023-06-10T08:02:02;20.80;99.90
74869;DHT22;63419;42.262;12.210;2023-06-10T08:04:30;20.50;99.90
74869;DHT22;63419;42.262;12.210;2023-06-10T08:06:58;20.50;99.90
74869;DHT22;63419;42.262;12.210;2023-06-10T08:09:25;20.40;99.90
74869;DHT22;63419;42.262;12.210;2023-06-10T08:11:52;20.60;99.90
74869;DHT22;63419;42.262;12.210;2023-06-10T08:14:19;20.70;99.90
74869;DHT22;63419;42.262;12.210;2023-06-10T08:16:47;20.70;99.90
74869;DHT22;63419;42.262;12.210;2023-06-10T08:19:14;21.00;99.90
74869;DHT22;63419;42.262;12.210;2023-06-10T08:21:42;21.30;99.90
74869;DHT22;63419;42.262;12.210;2023-06-10T08:24:10;21.60;99.90
74869;DHT22;63419;42.262;12.210;2023-06-10T08:26:38;21.70;99.90
74869;DHT22;63419;42.262;12.210;2023-06-10T08:29:05;21.70;99.90
74869;DHT22;63419;42.262;12.210;2023-06-10T08:31:33;22.00;99.90
74869;DHT22;63419;42.262;12.210;2023-06-10T08:34:00;22.10;99.90
74869;DHT22;63419;42.262;12.210;2023-06-10T08:36:27;21.70;99.90
74869;DHT22;63419;42.262;12.210;2023-06-10T08:38:54;21.10;99.90
74869;DHT22;63419;42.262;12.210;2023-06-10T08:41:24;20.90;99.90
74869;DHT22;63419;42.262;12.210;2023-06-10T08:44:08;20.70;99.90
74869;DHT22;63419;42.262;12.210;2023-06-10T08:46:37;21.00;99.90
74869;DHT22;63419;42.262;12.210;2023-06-10T08:49:06;21.50;99.90
74869;DHT22;63419;42.262;12.210;2023-06-10T08:51:35;21.80;99.90
74869;DHT22;63419;42.262;12.210;2023-06-10T08:54:22;21.80;99.90
74869;DHT22;63419;42.262;12.210;2023-06-10T08:56:55;22.00;99.90
74869;DHT22;63419;42.262;12.210;2023-06-10T08:59:24;22.00;99.90
74869;DHT22;63419;42.262;12.210;2023-06-10T09:01:52;21.70;99.90
74869;DHT22;63419;42.262;12.210;2023-06-10T09:04:20;22.10;99.90
74869;DHT22;63419;42.262;12.210;2023-06-10T09:06:49;22.40;99.90
74869;DHT22;63419;42.262;12.210;2023-06-10T09:09:18;22.50;99.90
74869;DHT22;63419;42.262;12.210;2023-06-10T09:11:47;22.10;99.90
74869;DHT22;63419;42.262;12.210;2023-06-10T09:14:14;21.70;99.90
74869;DHT22;63419;42.262;12.210;2023-06-10T09:16:43;22.50;99.90
74869;DHT22;63419;42.262;12.210;2023-06-10T09:19:14;22.50;99.90
74869;DHT22;63419;42.262;12.210;2023-06-10T09:21:43;22.80;99.90
74869;DHT22;63419;42.262;12.210;2023-06-10T09:24:10;22.70;99.90
74869;DHT22;63419;42.262;12.210;2023-06-10T09:26:37;22.80;99.90
74869;DHT22;63419;42.262;12.210;2023-06-10T09:29:06;23.20;99.90
74869;DHT22;63419;42.262;12.210;2023-06-10T09:31:36;23.90;99.90
74869;DHT22;63419;42.262;12.210;2023-06-10T09:34:12;24.10;99.90
74869;DHT22;63419;42.262;12.210;2023-06-10T09:36:40;22.70;99.90
74869;DHT22;63419;42.262;12.210;2023-06-10T09:39:16;22.50;99.90
74869;DHT22;63419;42.262;12.210;2023-06-10T09:41:44;22.70;99.90
74869;DHT22;63419;42.262;12.210;2023-06-10T09:44:17;22.80;99.90
74869;DHT22;63419;42.262;12.210;2023-06-10T09:46:50;22.80;99.90
74869;DHT22;63419;42.262;12.210;2023-06-10T09:49:17;22.90;99.90
74869;DHT22;63419;42.262;12.210;2023-06-10T09:51:53;22.70;99.90
74869;DHT22;63419;42.262;12.210;2023-06-10T09:54:21;23.00;99.90
74869;DHT22;63419;42.262;12.210;2023-06-10T09:56:51;22.80;99.90
74869;DHT22;63419;42.262;12.210;2023-06-10T09:59:28;22.20;99.90
74869;DHT22;63419;42.262;12.210;2023-06-10T10:01:58;21.70;99.90
74869;DHT22;63419;42.262;12.210;2023-06-10T10:04:27;21.50;99.90
74869;DHT22;63419;42.262;12.210;2023-06-10T10:06:55;21.50;99.90
74869;DHT22;63419;42.262;12.210;2023-06-10T10:09:23;22.00;99.90
74869;DHT22;63419;42.262;12.210;2023-06-10T10:11:52;23.30;99.90
74869;DHT22;63419;42.262;12.210;2023-06-10T10:14:21;24.00;99.90
74869;DHT22;63419;42.262;12.210;2023-06-10T10:16:49;24.60;99.90
74869;DHT22;63419;42.262;12.210;2023-06-10T10:19:25;25.10;99.90
74869;DHT22;63419;42.262;12.210;2023-06-10T10:21:56;24.00;99.90
74869;DHT22;63419;42.262;12.210;2023-06-10T10:24:35;24.50;99.90
74869;DHT22;63419;42.262;12.210;2023-06-10T10:27:11;23.30;99.90
74869;DHT22;63419;42.262;12.210;2023-06-10T10:29:42;23.50;99.90
74869;DHT22;63419;42.262;12.210;2023-06-10T10:32:14;23.40;99.90
74869;DHT22;63419;42.262;12.210;2023-06-10T10:34:59;23.40;99.90
74869;DHT22;63419;42.262;12.210;2023-06-10T10:37:28;23.40;99.90
74869;DHT22;63419;42.262;12.210;2023-06-10T10:39:56;22.80;99.90
74869;DHT22;63419;42.262;12.210;2023-06-10T10:42:25;22.90;99.90
74869;DHT22;63419;42.262;12.210;2023-06-10T10:44:53;22.90;99.90
74869;DHT22;63419;42.262;12.210;2023-06-10T10:47:21;22.80;99.90
74869;DHT22;63419;42.262;12.210;2023-06-10T10:49:52;23.10;99.90
74869;DHT22;63419;42.262;12.210;2023-06-10T10:52:20;22.70;99.90
74869;DHT22;63419;42.262;12.210;2023-06-10T10:54:48;23.40;99.90
74869;DHT22;63419;42.262;12.210;2023-06-10T10:57:18;23.90;99.90
74869;DHT22;63419;42.262;12.210;2023-06-10T10:59:55;23.10;99.90
74869;DHT22;63419;42.262;12.210;2023-06-10T11:02:43;23.50;99.90
74869;DHT22;63419;42.262;12.210;2023-06-10T11:05:15;23.40;99.90
74869;DHT22;63419;42.262;12.210;2023-06-10T11:07:55;23.70;99.90
74869;DHT22;63419;42.262;12.210;2023-06-10T11:10:36;25.20;99.90
74869;DHT22;63419;42.262;12.210;2023-06-10T11:13:08;26.20;99.90
74869;DHT22;63419;42.262;12.210;2023-06-10T11:15:43;27.10;99.90
74869;DHT22;63419;42.262;12.210;2023-06-10T11:23:42;23.20;99.90
74869;DHT22;63419;42.262;12.210;2023-06-10T11:31:22;22.40;99.90
74869;DHT22;63419;42.262;12.210;2023-06-10T11:33:53;22.80;99.90
74869;DHT22;63419;42.262;12.210;2023-06-10T11:36:22;24.00;99.90
74869;DHT22;63419;42.262;12.210;2023-06-10T11:38:56;24.80;99.90
74869;DHT22;63419;42.262;12.210;2023-06-10T11:41:25;24.00;99.90
74869;DHT22;63419;42.262;12.210;2023-06-10T11:44:10;24.00;99.90
74869;DHT22;63419;42.262;12.210;2023-06-10T11:46:39;23.50;99.90
74869;DHT22;63419;42.262;12.210;2023-06-10T11:49:06;24.80;99.90
74869;DHT22;63419;42.262;12.210;2023-06-10T11:51:36;24.40;99.90
74869;DHT22;63419;42.262;12.210;2023-06-10T11:54:04;25.30;99.90
74869;DHT22;63419;42.262;12.210;2023-06-10T11:56:32;24.40;99.90
74869;DHT22;63419;42.262;12.210;2023-06-10T11:59:04;24.30;99.90
74869;DHT22;63419;42.262;12.210;2023-06-10T12:01:40;23.90;99.90
74869;DHT22;63419;42.262;12.210;2023-06-10T12:04:12;24.60;99.90
74869;DHT22;63419;42.262;12.210;2023-06-10T12:06:50;24.90;99.90
74869;DHT22;63419;42.262;12.210;2023-06-10T12:09:20;23.40;99.90
74869;DHT22;63419;42.262;12.210;2023-06-10T12:12:04;24.10;99.90
74869;DHT22;63419;42.262;12.210;2023-06-10T12:14:58;24.80;99.90
74869;DHT22;63419;42.262;12.210;2023-06-10T12:20:01;24.60;99.90
74869;DHT22;63419;42.262;12.210;2023-06-10T12:22:41;23.50;99.90
74869;DHT22;63419;42.262;12.210;2023-06-10T12:25:10;23.50;99.90
74869;DHT22;63419;42.262;12.210;2023-06-10T12:27:40;22.90;99.90
74869;DHT22;63419;42.262;12.210;2023-06-10T12:30:08;23.20;99.90
74869;DHT22;63419;42.262;12.210;2023-06-10T12:32:36;23.00;99.90
74869;DHT22;63419;42.262;12.210;2023-06-10T12:35:05;23.00;99.90
74869;DHT22;63419;42.262;12.210;2023-06-10T12:37:33;23.50;99.90
74869;DHT22;63419;42.262;12.210;2023-06-10T12:40:02;23.60;99.90
74869;DHT22;63419;42.262;12.210;2023-06-10T12:42:30;24.30;99.90
74869;DHT22;63419;42.262;12.210;2023-06-10T12:44:58;23.90;99.90
74869;DHT22;63419;42.262;12.210;2023-06-10T12:47:32;23.50;99.90
74869;DHT22;63419;42.262;12.210;2023-06-10T12:49:59;23.40;99.90
74869;DHT22;63419;42.262;12.210;2023-06-10T12:52:27;22.90;99.90
74869;DHT22;63419;42.262;12.210;2023-06-10T12:54:55;22.50;99.90
74869;DHT22;63419;42.262;12.210;2023-06-10T12:57:22;22.70;99.90
74869;DHT22;63419;42.262;12.210;2023-06-10T12:59:50;22.70;99.90
74869;DHT22;63419;42.262;12.210;2023-06-10T13:02:19;24.10;99.90
74869;DHT22;63419;42.262;12.210;2023-06-10T13:04:47;23.90;99.90
74869;DHT22;63419;42.262;12.210;2023-06-10T13:07:15;23.60;99.90
74869;DHT22;63419;42.262;12.210;2023-06-10T13:09:43;23.50;99.90
74869;DHT22;63419;42.262;12.210;2023-06-10T13:12:10;23.40;99.90
74869;DHT22;63419;42.262;12.210;2023-06-10T13:14:42;23.40;99.90
74869;DHT22;63419;42.262;12.210;2023-06-10T13:17:09;23.10;99.90
74869;DHT22;63419;42.262;12.210;2023-06-10T13:19:37;23.50;99.90
74869;DHT22;63419;42.262;12.210;2023-06-10T13:22:04;23.60;99.90
74869;DHT22;63419;42.262;12.210;2023-06-10T13:24:31;23.50;99.90
74869;DHT22;63419;42.262;12.210;2023-06-10T13:26:59;23.80;99.90
74869;DHT22;63419;42.262;12.210;2023-06-10T13:29:26;23.90;99.90
74869;DHT22;63419;42.262;12.210;2023-06-10T13:31:53;24.10;99.90
74869;DHT22;63419;42.262;12.210;2023-06-10T13:34:21;24.20;99.90
74869;DHT22;63419;42.262;12.210;2023-06-10T13:36:48;24.00;99.90
74869;DHT22;63419;42.262;12.210;2023-06-10T13:39:16;24.80;99.90
74869;DHT22;63419;42.262;12.210;2023-06-10T13:41:43;26.10;99.90
74869;DHT22;63419;42.262;12.210;2023-06-10T13:44:10;25.60;99.90
74869;DHT22;63419;42.262;12.210;2023-06-10T13:46:38;25.10;99.90
74869;DHT22;63419;42.262;12.210;2023-06-10T13:49:05;25.30;99.90
74869;DHT22;63419;42.262;12.210;2023-06-10T13:51:33;25.60;99.90
74869;DHT22;63419;42.262;12.210;2023-06-10T13:54:00;25.30;99.90
74869;DHT22;63419;42.262;12.210;2023-06-10T13:56:28;25.20;99.90
74869;DHT22;63419;42.262;12.210;2023-06-10T13:58:55;24.30;99.90
74869;DHT22;63419;42.262;12.210;2023-06-10T14:01:22;23.80;99.90
74869;DHT22;63419;42.262;12.210;2023-06-10T14:03:50;25.40;99.90
74869;DHT22;63419;42.262;12.210;2023-06-10T14:06:17;26.00;99.90
74869;DHT22;63419;42.262;12.210;2023-06-10T14:08:45;25.60;99.90
74869;DHT22;63419;42.262;12.210;2023-06-10T14:11:13;24.90;99.90
74869;DHT22;63419;42.262;12.210;2023-06-10T14:13:40;25.80;99.90
74869;DHT22;63419;42.262;12.210;2023-06-10T14:16:07;24.80;99.90
74869;DHT22;63419;42.262;12.210;2023-06-10T14:18:34;24.30;99.90
74869;DHT22;63419;42.262;12.210;2023-06-10T14:21:02;25.10;99.90
74869;DHT22;63419;42.262;12.210;2023-06-10T14:23:29;24.30;99.90
74869;DHT22;63419;42.262;12.210;2023-06-10T14:25:56;24.40;99.90
74869;DHT22;63419;42.262;12.210;2023-06-10T14:28:24;23.90;99.90
74869;DHT22;63419;42.262;12.210;2023-06-10T14:30:52;24.30;99.90
74869;DHT22;63419;42.262;12.210;2023-06-10T14:33:20;25.00;99.90
74869;DHT22;63419;42.262;12.210;2023-06-10T14:35:47;24.90;99.90
74869;DHT22;63419;42.262;12.210;2023-06-10T14:38:15;26.20;99.90
74869;DHT22;63419;42.262;12.210;2023-06-10T14:40:42;27.00;99.90
74869;DHT22;63419;42.262;12.210;2023-06-10T14:43:09;25.70;99.90
74869;DHT22;63419;42.262;12.210;2023-06-10T14:45:41;25.10;99.90
74869;DHT22;63419;42.262;12.210;2023-06-10T14:48:08;24.90;99.90
74869;DHT22;63419;42.262;12.210;2023-06-10T14:50:35;24.40;99.90
74869;DHT22;63419;42.262;12.210;2023-06-10T14:53:03;24.00;99.90
74869;DHT22;63419;42.262;12.210;2023-06-10T14:55:30;25.10;99.90
74869;DHT22;63419;42.262;12.210;2023-06-10T14:57:58;24.60;99.90
74869;DHT22;63419;42.262;12.210;2023-06-10T15:00:25;25.50;99.90
74869;DHT22;63419;42.262;12.210;2023-06-10T15:02:53;25.80;99.90
74869;DHT22;63419;42.262;12.210;2023-06-10T15:05:22;24.60;99.90
74869;DHT22;63419;42.262;12.210;2023-06-10T15:07:49;24.10;99.90
74869;DHT22;63419;42.262;12.210;2023-06-10T15:10:17;25.10;99.90
74869;DHT22;63419;42.262;12.210;2023-06-10T15:12:49;25.10;99.90
74869;DHT22;63419;42.262;12.210;2023-06-10T15:15:23;25.10;99.90
74869;DHT22;63419;42.262;12.210;2023-06-10T15:17:52;24.20;99.90
74869;DHT22;63419;42.262;12.210;2023-06-10T15:20:20;24.30;99.90
74869;DHT22;63419;42.262;12.210;2023-06-10T15:22:47;24.80;99.90
74869;DHT22;63419;42.262;12.210;2023-06-10T15:25:14;24.90;99.90
74869;DHT22;63419;42.262;12.210;2023-06-10T15:27:56;25.20;99.90
74869;DHT22;63419;42.262;12.210;2023-06-10T15:30:24;24.40;99.90
74869;DHT22;63419;42.262;12.210;2023-06-10T15:32:51;23.70;99.90
74869;DHT22;63419;42.262;12.210;2023-06-10T15:35:18;23.10;99.90
74869;DHT22;63419;42.262;12.210;2023-06-10T15:37:46;23.60;99.90
74869;DHT22;63419;42.262;12.210;2023-06-10T15:40:14;24.10;99.90
74869;DHT22;63419;42.262;12.210;2023-06-10T15:42:41;25.40;99.90
74869;DHT22;63419;42.262;12.210;2023-06-10T15:45:08;25.70;99.90